createdAt,value
2023-05-19T00:00:10.666Z,100971.78
2023-05-19T00:00:42.248Z,100979.69
2023-05-19T00:01:13.982Z,100970.00
2023-05-19T00:01:45.635Z,100962.97
2023-05-19T00:02:17.321Z,100974.47
2023-05-19T00:02:49.128Z,100971.78
2023-05-19T00:03:20.918Z,100977.13
2023-05-19T00:03:53.083Z,100969.13
2023-05-19T00:04:24.735Z,100964.69
2023-05-19T00:04:56.338Z,100970.00
2023-05-19T00:05:28.185Z,100970.84
2023-05-19T00:06:02.026Z,100974.34
2023-05-19T00:06:33.634Z,100973.50
2023-05-19T00:07:05.289Z,100969.91
2023-05-19T00:07:37.494Z,100970.84
2023-05-19T00:08:09.023Z,100973.50
2023-05-19T00:08:40.619Z,100963.69
2023-05-19T00:09:12.201Z,100971.69
2023-05-19T00:09:43.904Z,100969.91
2023-05-19T00:10:15.832Z,100956.56
2023-05-19T00:10:47.534Z,100968.19
2023-05-19T00:11:19.177Z,100975.22
2023-05-19T00:11:50.826Z,100962.84
2023-05-19T00:12:22.489Z,100961.91
2023-05-19T00:12:54.175Z,100958.38
2023-05-19T00:13:25.915Z,100958.25
2023-05-19T00:13:58.236Z,100963.59
2023-05-19T00:14:29.849Z,100968.06
2023-05-19T00:15:01.505Z,100961.03
2023-05-19T00:15:33.190Z,100972.56
2023-05-19T00:16:04.920Z,100962.84
2023-05-19T00:16:36.712Z,100970.84
2023-05-19T00:17:08.493Z,100958.47
2023-05-19T00:17:40.115Z,100954.97
2023-05-19T00:18:11.713Z,100966.47
2023-05-19T00:18:43.293Z,100956.81
2023-05-19T00:19:14.946Z,100964.78
2023-05-19T00:19:46.477Z,100964.69
2023-05-19T00:20:18.075Z,100958.47
2023-05-19T00:20:49.606Z,100954.03
2023-05-19T00:21:21.190Z,100953.16
2023-05-19T00:21:52.740Z,100955.72
2023-05-19T00:22:24.257Z,100958.38
2023-05-19T00:22:55.797Z,100953.03
2023-05-19T00:23:27.541Z,100960.19
2023-05-19T00:23:59.050Z,100958.38
2023-05-19T00:24:30.514Z,100959.34
2023-05-19T00:25:02.000Z,100959.25
2023-05-19T00:25:33.510Z,100960.19
2023-05-19T00:26:05.016Z,100956.69
2023-05-19T00:26:36.471Z,100957.63
2023-05-19T00:27:07.951Z,100959.34
2023-05-19T00:27:39.405Z,100965.63
2023-05-19T00:28:10.902Z,100959.34
2023-05-19T00:28:42.380Z,100957.63
2023-05-19T00:29:13.827Z,100966.47
2023-05-19T00:29:45.310Z,100959.34
2023-05-19T00:30:16.866Z,100969.91
2023-05-19T00:30:48.375Z,100973.50
2023-05-19T00:31:19.896Z,100956.81
2023-05-19T00:31:51.458Z,100967.44
2023-05-19T00:32:23.109Z,100966.47
2023-05-19T00:32:54.853Z,100958.47
2023-05-19T00:33:26.381Z,100964.78
2023-05-19T00:33:57.893Z,100958.47
2023-05-19T00:34:29.420Z,100961.13
2023-05-19T00:35:00.900Z,100962.97
2023-05-19T00:35:32.387Z,100962.13
2023-05-19T00:36:04.105Z,100963.81
2023-05-19T00:36:35.705Z,100956.69
2023-05-19T00:37:07.152Z,100958.47
2023-05-19T00:37:38.649Z,100968.19
2023-05-19T00:38:10.154Z,100967.44
2023-05-19T00:38:41.679Z,100954.97
2023-05-19T00:39:13.161Z,100969.13
2023-05-19T00:39:44.655Z,100957.63
2023-05-19T00:40:16.214Z,100959.47
2023-05-19T00:40:47.757Z,100962.13
2023-05-19T00:41:19.338Z,100955.09
2023-05-19T00:41:50.841Z,100959.47
2023-05-19T00:42:22.341Z,100964.78
2023-05-19T00:42:53.822Z,100958.47
2023-05-19T00:43:25.506Z,100954.03
2023-05-19T00:43:57.016Z,100957.63
2023-05-19T00:44:28.522Z,100955.81
2023-05-19T00:45:00.068Z,100954.97
2023-05-19T00:45:31.586Z,100965.75
2023-05-19T00:46:03.375Z,100961.28
2023-05-19T00:46:34.980Z,100964.78
2023-05-19T00:47:06.879Z,100955.81
2023-05-19T00:47:39.161Z,100951.47
2023-05-19T00:48:10.874Z,100957.63
2023-05-19T00:48:42.495Z,100958.47
2023-05-19T00:49:14.034Z,100957.63
2023-05-19T00:49:45.582Z,100956.81
2023-05-19T00:50:17.079Z,100963.81
2023-05-19T00:50:49.084Z,100955.81
2023-05-19T00:51:20.625Z,100961.13
2023-05-19T00:51:52.117Z,100952.31
2023-05-19T00:52:23.574Z,100958.47
2023-05-19T00:52:55.698Z,100966.47
2023-05-19T00:53:27.179Z,100959.34
2023-05-19T00:53:58.645Z,100959.34
2023-05-19T00:54:30.220Z,100958.47
2023-05-19T00:55:01.810Z,100965.63
2023-05-19T00:55:33.388Z,100959.47
2023-05-19T00:56:04.926Z,100957.63
2023-05-19T00:56:36.515Z,100954.97
2023-05-19T00:57:08.032Z,100949.66
2023-05-19T00:57:39.550Z,100960.31
2023-05-19T00:58:11.333Z,100949.66
2023-05-19T00:58:42.886Z,100952.31
2023-05-19T00:59:14.396Z,100952.31
2023-05-19T00:59:45.984Z,100953.28
2023-05-19T01:00:17.456Z,100952.19
2023-05-19T01:00:49.084Z,100957.53
2023-05-19T01:01:20.635Z,100955.81
2023-05-19T01:01:52.300Z,100960.31
2023-05-19T01:02:23.828Z,100959.34
2023-05-19T01:02:55.540Z,100954.88
2023-05-19T01:03:27.248Z,100955.81
2023-05-19T01:03:59.220Z,100950.50
2023-05-19T01:04:30.934Z,100956.69
2023-05-19T01:05:02.465Z,100957.53
2023-05-19T01:05:33.988Z,100961.03
2023-05-19T01:06:05.588Z,100960.19
2023-05-19T01:06:37.316Z,100955.81
2023-05-19T01:07:08.861Z,100953.03
2023-05-19T01:07:40.951Z,100960.31
2023-05-19T01:08:12.502Z,100959.34
2023-05-19T01:08:44.012Z,100954.88
2023-05-19T01:09:15.812Z,100956.69
2023-05-19T01:09:47.324Z,100955.81
2023-05-19T01:10:21.237Z,100954.97
2023-05-19T01:10:52.722Z,100954.03
2023-05-19T01:11:24.216Z,100955.81
2023-05-19T01:11:55.865Z,100954.03
2023-05-19T01:12:27.434Z,100953.16
2023-05-19T01:12:58.973Z,100950.50
2023-05-19T01:13:30.753Z,100955.72
2023-05-19T01:14:02.357Z,100957.41
2023-05-19T01:14:33.930Z,100951.25
2023-05-19T01:15:05.835Z,100955.72
2023-05-19T01:15:49.911Z,100961.91
2023-05-19T01:16:39.746Z,100956.56
2023-05-19T01:17:19.688Z,100953.81
2023-05-19T01:18:11.732Z,100951.16
2023-05-19T01:18:44.202Z,100956.56
2023-05-19T01:19:51.163Z,100946.03
2023-05-19T01:20:24.366Z,100956.81
2023-05-19T01:20:58.746Z,100953.16
2023-05-19T01:21:39.295Z,100958.47
2023-05-19T01:22:13.061Z,100955.72
2023-05-19T01:22:47.897Z,100954.88
2023-05-19T01:23:32.444Z,100959.34
2023-05-19T01:24:18.789Z,100959.34
2023-05-19T01:25:07.202Z,100956.56
2023-05-19T01:25:57.692Z,100954.88
2023-05-19T01:26:48.114Z,100951.25
2023-05-19T01:27:32.133Z,100961.13
2023-05-19T01:28:22.035Z,100953.16
2023-05-19T01:29:01.377Z,100954.03
2023-05-19T01:29:35.839Z,100949.53
2023-05-19T01:30:13.126Z,100951.25
2023-05-19T01:30:44.749Z,100957.41
2023-05-19T01:31:16.369Z,100953.91
2023-05-19T01:31:48.149Z,100951.25
2023-05-19T01:32:19.778Z,100954.88
2023-05-19T01:32:52.072Z,100953.91
2023-05-19T01:33:23.815Z,100954.88
2023-05-19T01:33:55.332Z,100954.03
2023-05-19T01:34:26.997Z,100955.72
2023-05-19T01:34:58.503Z,100946.88
2023-05-19T01:35:30.121Z,100956.56
2023-05-19T01:36:02.702Z,100952.94
2023-05-19T01:36:34.222Z,100951.25
2023-05-19T01:37:05.736Z,100953.03
2023-05-19T01:37:37.516Z,100949.44
2023-05-19T01:38:09.472Z,100951.25
2023-05-19T01:38:41.021Z,100957.41
2023-05-19T01:39:12.554Z,100952.94
2023-05-19T01:39:44.280Z,100945.94
2023-05-19T01:40:15.777Z,100950.28
2023-05-19T01:40:47.390Z,100950.38
2023-05-19T01:41:19.433Z,100948.59
2023-05-19T01:41:50.995Z,100945.06
2023-05-19T01:42:22.491Z,100942.38
2023-05-19T01:42:57.318Z,100952.19
2023-05-19T01:43:29.148Z,100953.16
2023-05-19T01:44:00.669Z,100946.16
2023-05-19T01:44:32.187Z,100953.16
2023-05-19T01:45:04.164Z,100948.69
2023-05-19T01:45:35.715Z,100943.38
2023-05-19T01:46:07.304Z,100945.94
2023-05-19T01:46:39.038Z,100945.94
2023-05-19T01:47:10.537Z,100947.59
2023-05-19T01:47:42.697Z,100944.09
2023-05-19T01:48:14.382Z,100939.63
2023-05-19T01:48:45.997Z,100940.59
2023-05-19T01:49:17.527Z,100940.59
2023-05-19T01:49:49.126Z,100941.56
2023-05-19T01:50:20.777Z,100946.75
2023-05-19T01:50:52.373Z,100934.41
2023-05-19T01:51:23.948Z,100939.63
2023-05-19T01:51:55.866Z,100936.13
2023-05-19T01:52:27.421Z,100944.94
2023-05-19T01:52:59.659Z,100937.06
2023-05-19T01:53:31.156Z,100937.06
2023-05-19T01:54:02.774Z,100944.22
2023-05-19T01:54:34.421Z,100941.44
2023-05-19T01:55:06.249Z,100941.56
2023-05-19T01:55:42.563Z,100945.06
2023-05-19T01:56:15.147Z,100936.22
2023-05-19T01:56:49.838Z,100945.94
2023-05-19T01:57:24.624Z,100940.59
2023-05-19T01:58:05.026Z,100939.72
2023-05-19T01:58:36.540Z,100940.59
2023-05-19T01:59:23.085Z,100938.88
2023-05-19T02:00:00.556Z,100940.59
2023-05-19T02:00:35.167Z,100945.06
2023-05-19T02:01:06.826Z,100937.06
2023-05-19T02:01:41.898Z,100944.22
2023-05-19T02:02:16.973Z,100936.22
2023-05-19T02:02:55.387Z,100939.72
2023-05-19T02:03:37.040Z,100940.59
2023-05-19T02:04:27.360Z,100937.06
2023-05-19T02:05:00.201Z,100943.25
2023-05-19T02:05:35.148Z,100935.28
2023-05-19T02:06:06.658Z,100936.94
2023-05-19T02:06:52.955Z,100939.63
2023-05-19T02:07:31.120Z,100939.63
2023-05-19T02:08:13.384Z,100944.00
2023-05-19T02:08:50.999Z,100944.00
2023-05-19T02:09:54.715Z,100944.00
2023-05-19T02:10:29.180Z,100936.00
2023-05-19T02:11:01.647Z,100944.00
2023-05-19T02:11:36.704Z,100949.31
2023-05-19T02:12:24.051Z,100939.63
2023-05-19T02:12:55.636Z,100947.59
2023-05-19T02:13:29.193Z,100947.59
2023-05-19T02:14:01.251Z,100949.31
2023-05-19T02:14:35.860Z,100947.59
2023-05-19T02:15:09.762Z,100946.75
2023-05-19T02:15:41.681Z,100949.31
2023-05-19T02:16:13.229Z,100952.81
2023-05-19T02:16:45.326Z,100954.66
2023-05-19T02:17:16.910Z,100954.66
2023-05-19T02:17:48.709Z,100951.03
2023-05-19T02:18:20.425Z,100957.19
2023-05-19T02:18:52.083Z,100955.47
2023-05-19T02:19:24.374Z,100954.66
2023-05-19T02:19:56.460Z,100954.53
2023-05-19T02:20:27.964Z,100959.03
2023-05-19T02:20:59.545Z,100951.88
2023-05-19T02:21:31.009Z,100953.69
2023-05-19T02:22:02.564Z,100951.03
2023-05-19T02:22:34.261Z,100950.16
2023-05-19T02:23:05.820Z,100959.97
2023-05-19T02:23:37.412Z,100948.47
2023-05-19T02:24:09.030Z,100951.25
2023-05-19T02:24:40.589Z,100950.38
2023-05-19T02:25:12.129Z,100955.59
2023-05-19T02:25:43.695Z,100949.31
2023-05-19T02:26:15.184Z,100951.97
2023-05-19T02:26:46.762Z,100954.66
2023-05-19T02:27:18.286Z,100953.81
2023-05-19T02:27:50.861Z,100954.66
2023-05-19T02:28:22.411Z,100958.16
2023-05-19T02:28:53.988Z,100956.34
2023-05-19T02:29:25.590Z,100951.03
2023-05-19T02:29:57.120Z,100954.66
2023-05-19T02:30:28.710Z,100950.16
2023-05-19T02:31:00.306Z,100960.81
2023-05-19T02:31:31.941Z,100959.97
2023-05-19T02:32:03.562Z,100951.03
2023-05-19T02:32:35.219Z,100959.03
2023-05-19T02:33:09.428Z,100958.25
2023-05-19T02:33:40.997Z,100957.31
2023-05-19T02:34:12.601Z,100959.03
2023-05-19T02:34:44.307Z,100951.03
2023-05-19T02:35:15.901Z,100954.53
2023-05-19T02:35:47.517Z,100944.84
2023-05-19T02:36:19.089Z,100951.03
2023-05-19T02:36:50.662Z,100947.50
2023-05-19T02:37:22.144Z,100949.31
2023-05-19T02:37:53.661Z,100951.03
2023-05-19T02:38:25.417Z,100958.03
2023-05-19T02:38:57.080Z,100954.53
2023-05-19T02:39:28.650Z,100954.66
2023-05-19T02:40:00.360Z,100959.97
2023-05-19T02:40:32.067Z,100956.34
2023-05-19T02:41:03.868Z,100949.31
2023-05-19T02:41:35.433Z,100959.97
2023-05-19T02:42:07.022Z,100955.47
2023-05-19T02:42:38.519Z,100959.97
2023-05-19T02:43:10.054Z,100954.66
2023-05-19T02:43:41.569Z,100954.66
2023-05-19T02:44:13.103Z,100955.47
2023-05-19T02:44:44.631Z,100951.97
2023-05-19T02:45:16.286Z,100954.66
2023-05-19T02:45:47.889Z,100962.63
2023-05-19T02:46:19.405Z,100953.81
2023-05-19T02:46:51.028Z,100951.03
2023-05-19T02:47:22.651Z,100956.34
2023-05-19T02:47:54.251Z,100951.88
2023-05-19T02:48:25.812Z,100956.34
2023-05-19T02:48:57.311Z,100951.03
2023-05-19T02:49:28.820Z,100951.03
2023-05-19T02:50:00.379Z,100947.38
2023-05-19T02:50:32.116Z,100951.16
2023-05-19T02:51:04.049Z,100951.03
2023-05-19T02:51:35.603Z,100951.03
2023-05-19T02:52:07.143Z,100951.03
2023-05-19T02:52:38.744Z,100951.03
2023-05-19T02:53:10.375Z,100952.72
2023-05-19T02:53:41.961Z,100941.22
2023-05-19T02:54:13.532Z,100956.25
2023-05-19T02:54:45.134Z,100950.06
2023-05-19T02:55:16.745Z,100953.59
2023-05-19T02:55:48.413Z,100953.59
2023-05-19T02:56:20.049Z,100951.03
2023-05-19T02:56:51.689Z,100946.53
2023-05-19T02:57:23.271Z,100951.88
2023-05-19T02:57:54.877Z,100948.38
2023-05-19T02:58:26.414Z,100949.31
2023-05-19T02:58:57.905Z,100952.81
2023-05-19T02:59:29.550Z,100951.16
2023-05-19T03:00:01.088Z,100951.03
2023-05-19T03:00:32.984Z,100950.16
2023-05-19T03:01:04.826Z,100951.03
2023-05-19T03:01:36.374Z,100951.03
2023-05-19T03:02:07.965Z,100952.72
2023-05-19T03:02:39.597Z,100943.03
2023-05-19T03:03:11.307Z,100952.81
2023-05-19T03:03:42.939Z,100956.34
2023-05-19T03:04:14.500Z,100955.47
2023-05-19T03:04:46.130Z,100953.81
2023-05-19T03:05:17.646Z,100952.94
2023-05-19T03:05:49.148Z,100951.25
2023-05-19T03:06:20.802Z,100960.94
2023-05-19T03:06:52.589Z,100958.25
2023-05-19T03:07:24.192Z,100953.81
2023-05-19T03:07:55.897Z,100950.28
2023-05-19T03:08:27.727Z,100952.09
2023-05-19T03:08:59.363Z,100948.59
2023-05-19T03:09:30.972Z,100951.25
2023-05-19T03:10:02.639Z,100950.38
2023-05-19T03:10:34.355Z,100943.25
2023-05-19T03:11:05.897Z,100945.94
2023-05-19T03:11:37.472Z,100946.88
2023-05-19T03:12:09.130Z,100949.53
2023-05-19T03:12:40.643Z,100937.19
2023-05-19T03:13:12.232Z,100940.59
2023-05-19T03:13:43.718Z,100945.94
2023-05-19T03:14:15.264Z,100937.94
2023-05-19T03:14:46.797Z,100941.44
2023-05-19T03:15:18.423Z,100937.94
2023-05-19T03:15:50.133Z,100941.56
2023-05-19T03:16:21.671Z,100944.22
2023-05-19T03:16:53.386Z,100943.25
2023-05-19T03:17:25.280Z,100945.06
2023-05-19T03:17:57.019Z,100940.59
2023-05-19T03:18:28.780Z,100938.03
2023-05-19T03:19:00.395Z,100938.03
2023-05-19T03:19:31.987Z,100941.56
2023-05-19T03:20:03.508Z,100937.19
2023-05-19T03:20:35.081Z,100944.22
2023-05-19T03:21:06.559Z,100939.84
2023-05-19T03:21:38.085Z,100942.50
2023-05-19T03:22:12.648Z,100941.66
2023-05-19T03:22:44.203Z,100935.50
2023-05-19T03:23:15.711Z,100939.00
2023-05-19T03:23:47.313Z,100937.19
2023-05-19T03:24:18.844Z,100944.22
2023-05-19T03:24:50.498Z,100939.72
2023-05-19T03:25:22.204Z,100943.38
2023-05-19T03:25:53.880Z,100943.38
2023-05-19T03:26:25.398Z,100937.19
2023-05-19T03:26:56.952Z,100943.38
2023-05-19T03:27:28.455Z,100941.56
2023-05-19T03:27:59.997Z,100933.56
2023-05-19T03:28:31.522Z,100934.41
2023-05-19T03:29:03.102Z,100943.38
2023-05-19T03:29:34.678Z,100941.66
2023-05-19T03:30:06.830Z,100934.50
2023-05-19T03:30:38.571Z,100937.19
2023-05-19T03:31:10.259Z,100938.03
2023-05-19T03:31:41.898Z,100941.56
2023-05-19T03:32:13.487Z,100938.03
2023-05-19T03:32:48.379Z,100936.22
2023-05-19T03:33:20.213Z,100936.34
2023-05-19T03:33:51.818Z,100942.50
2023-05-19T03:34:23.319Z,100936.22
2023-05-19T03:34:54.857Z,100935.50
2023-05-19T03:35:26.383Z,100937.19
2023-05-19T03:35:58.386Z,100940.81
2023-05-19T03:36:30.004Z,100942.50
2023-05-19T03:37:01.589Z,100935.38
2023-05-19T03:37:33.212Z,100932.72
2023-05-19T03:38:04.742Z,100933.66
2023-05-19T03:38:36.320Z,100935.50
2023-05-19T03:39:07.945Z,100936.34
2023-05-19T03:39:39.541Z,100937.19
2023-05-19T03:40:11.513Z,100935.50
2023-05-19T03:40:43.069Z,100938.16
2023-05-19T03:41:14.570Z,100947.81
2023-05-19T03:41:46.146Z,100934.50
2023-05-19T03:42:17.716Z,100947.81
2023-05-19T03:42:49.279Z,100941.66
2023-05-19T03:43:20.832Z,100936.34
2023-05-19T03:43:52.434Z,100945.16
2023-05-19T03:44:23.962Z,100942.50
2023-05-19T03:44:55.499Z,100942.50
2023-05-19T03:45:27.227Z,100941.66
2023-05-19T03:45:58.905Z,100947.81
2023-05-19T03:46:30.569Z,100942.50
2023-05-19T03:47:02.125Z,100947.81
2023-05-19T03:47:33.697Z,100945.16
2023-05-19T03:48:05.732Z,100949.53
2023-05-19T03:48:37.318Z,100946.88
2023-05-19T03:49:08.866Z,100945.16
2023-05-19T03:49:40.571Z,100939.84
2023-05-19T03:50:12.130Z,100946.88
2023-05-19T03:50:43.678Z,100954.97
2023-05-19T03:51:15.226Z,100951.47
2023-05-19T03:51:46.782Z,100950.63
2023-05-19T03:52:18.336Z,100955.81
2023-05-19T03:52:49.887Z,100952.31
2023-05-19T03:53:21.512Z,100954.88
2023-05-19T03:53:53.036Z,100955.81
2023-05-19T03:54:24.539Z,100952.19
2023-05-19T03:54:56.173Z,100950.50
2023-05-19T03:55:27.657Z,100953.16
2023-05-19T03:55:59.126Z,100951.47
2023-05-19T03:56:30.624Z,100951.47
2023-05-19T03:57:02.108Z,100947.09
2023-05-19T03:57:33.585Z,100954.97
2023-05-19T03:58:05.087Z,100952.31
2023-05-19T03:58:36.591Z,100954.97
2023-05-19T03:59:08.144Z,100953.16
2023-05-19T03:59:39.682Z,100953.16
2023-05-19T04:00:11.548Z,100954.03
2023-05-19T04:00:43.022Z,100952.31
2023-05-19T04:01:14.500Z,100951.38
2023-05-19T04:01:46.039Z,100952.31
2023-05-19T04:02:17.564Z,100952.31
2023-05-19T04:02:49.263Z,100951.47
2023-05-19T04:03:21.090Z,100953.16
2023-05-19T04:03:52.782Z,100953.16
2023-05-19T04:04:24.425Z,100947.00
2023-05-19T04:04:55.985Z,100949.53
2023-05-19T04:05:27.629Z,100954.88
2023-05-19T04:05:59.147Z,100952.31
2023-05-19T04:06:30.891Z,100953.16
2023-05-19T04:07:02.498Z,100950.50
2023-05-19T04:07:34.035Z,100949.66
2023-05-19T04:08:05.719Z,100957.63
2023-05-19T04:08:37.298Z,100957.63
2023-05-19T04:09:14.756Z,100958.47
2023-05-19T04:09:46.299Z,100959.47
2023-05-19T04:10:17.798Z,100956.81
2023-05-19T04:10:49.375Z,100961.28
2023-05-19T04:11:20.920Z,100959.47
2023-05-19T04:11:52.376Z,100952.41
2023-05-19T04:12:23.929Z,100962.13
2023-05-19T04:12:55.504Z,100967.44
2023-05-19T04:13:27.101Z,100967.44
2023-05-19T04:13:58.599Z,100971.94
2023-05-19T04:14:30.176Z,100954.97
2023-05-19T04:15:01.750Z,100962.13
2023-05-19T04:15:33.355Z,100967.44
2023-05-19T04:16:05.152Z,100956.81
2023-05-19T04:16:36.673Z,100969.28
2023-05-19T04:17:08.279Z,100965.75
2023-05-19T04:17:39.904Z,100966.59
2023-05-19T04:18:11.457Z,100954.13
2023-05-19T04:18:43.364Z,100962.97
2023-05-19T04:19:15.015Z,100969.13
2023-05-19T04:19:46.568Z,100962.13
2023-05-19T04:20:18.052Z,100963.94
2023-05-19T04:20:49.535Z,100965.75
2023-05-19T04:21:21.164Z,100962.13
2023-05-19T04:21:52.609Z,100952.41
2023-05-19T04:22:24.105Z,100956.81
2023-05-19T04:22:55.623Z,100951.59
2023-05-19T04:23:27.101Z,100955.09
2023-05-19T04:23:58.608Z,100969.28
2023-05-19T04:24:30.124Z,100955.97
2023-05-19T04:25:01.666Z,100954.13
2023-05-19T04:25:33.176Z,100950.63
2023-05-19T04:26:04.745Z,100963.81
2023-05-19T04:26:36.245Z,100956.81
2023-05-19T04:27:07.748Z,100953.28
2023-05-19T04:27:39.326Z,100955.97
2023-05-19T04:28:10.906Z,100958.63
2023-05-19T04:28:42.546Z,100954.25
2023-05-19T04:29:14.167Z,100957.75
2023-05-19T04:29:45.686Z,100955.09
2023-05-19T04:30:18.423Z,100954.25
2023-05-19T04:30:50.302Z,100954.13
2023-05-19T04:31:21.970Z,100954.13
2023-05-19T04:31:53.590Z,100951.47
2023-05-19T04:32:25.132Z,100951.47
2023-05-19T04:32:56.732Z,100952.31
2023-05-19T04:33:28.259Z,100946.16
2023-05-19T04:33:59.798Z,100947.97
2023-05-19T04:34:31.349Z,100951.47
2023-05-19T04:35:03.047Z,100957.63
2023-05-19T04:35:34.682Z,100948.81
2023-05-19T04:36:06.659Z,100953.28
2023-05-19T04:36:38.154Z,100955.97
2023-05-19T04:37:09.687Z,100947.09
2023-05-19T04:37:41.240Z,100951.59
2023-05-19T04:38:12.784Z,100948.06
2023-05-19T04:38:44.488Z,100947.09
2023-05-19T04:39:15.955Z,100951.47
2023-05-19T04:39:47.563Z,100956.81
2023-05-19T04:40:19.174Z,100951.47
2023-05-19T04:40:50.713Z,100955.09
2023-05-19T04:41:22.256Z,100947.09
2023-05-19T04:41:53.829Z,100943.47
2023-05-19T04:42:25.344Z,100947.09
2023-05-19T04:42:57.166Z,100947.00
2023-05-19T04:43:28.783Z,100953.28
2023-05-19T04:44:00.401Z,100950.63
2023-05-19T04:44:31.874Z,100950.63
2023-05-19T04:45:03.552Z,100948.91
2023-05-19T04:45:35.015Z,100950.75
2023-05-19T04:46:06.623Z,100949.75
2023-05-19T04:46:38.169Z,100953.28
2023-05-19T04:47:09.873Z,100953.28
2023-05-19T04:47:41.489Z,100950.63
2023-05-19T04:48:13.059Z,100948.81
2023-05-19T04:48:44.624Z,100954.13
2023-05-19T04:49:16.131Z,100953.28
2023-05-19T04:49:47.696Z,100954.13
2023-05-19T04:50:19.262Z,100948.06
2023-05-19T04:50:50.750Z,100948.06
2023-05-19T04:51:22.275Z,100957.75
2023-05-19T04:51:55.707Z,100948.91
2023-05-19T04:52:27.547Z,100958.63
2023-05-19T04:52:59.108Z,100955.97
2023-05-19T04:53:30.625Z,100956.81
2023-05-19T04:54:02.103Z,100953.28
2023-05-19T04:54:34.722Z,100955.97
2023-05-19T04:55:06.395Z,100951.59
2023-05-19T04:55:37.936Z,100954.25
2023-05-19T04:56:09.583Z,100957.75
2023-05-19T04:56:41.097Z,100964.78
2023-05-19T04:57:12.665Z,100962.97
2023-05-19T04:57:44.142Z,100955.97
2023-05-19T04:58:15.713Z,100966.59
2023-05-19T04:58:47.226Z,100968.41
2023-05-19T04:59:18.713Z,100959.56
2023-05-19T04:59:50.225Z,100958.63
2023-05-19T05:00:21.764Z,100955.09
2023-05-19T05:00:53.682Z,100960.41
2023-05-19T05:01:25.236Z,100965.75
2023-05-19T05:01:56.951Z,100963.06
2023-05-19T05:02:28.573Z,100963.94
2023-05-19T05:03:00.260Z,100963.94
2023-05-19T05:03:32.029Z,100959.47
2023-05-19T05:04:03.854Z,100954.13
2023-05-19T05:04:35.468Z,100961.38
2023-05-19T05:05:07.291Z,100964.91
2023-05-19T05:05:38.869Z,100964.91
2023-05-19T05:06:10.433Z,100964.06
2023-05-19T05:06:41.966Z,100964.78
2023-05-19T05:07:13.770Z,100954.25
2023-05-19T05:07:45.356Z,100965.75
2023-05-19T05:08:16.906Z,100959.47
2023-05-19T05:08:48.796Z,100967.44
2023-05-19T05:09:20.383Z,100954.25
2023-05-19T05:09:51.934Z,100954.25
2023-05-19T05:10:23.529Z,100959.47
2023-05-19T05:10:55.229Z,100965.75
2023-05-19T05:11:26.926Z,100960.41
2023-05-19T05:11:58.600Z,100949.03
2023-05-19T05:12:30.266Z,100953.41
2023-05-19T05:13:01.851Z,100955.97
2023-05-19T05:13:33.518Z,100950.63
2023-05-19T05:14:05.155Z,100954.13
2023-05-19T05:14:36.788Z,100955.09
2023-05-19T05:15:08.903Z,100961.38
2023-05-19T05:15:40.532Z,100947.09
2023-05-19T05:16:12.464Z,100963.06
2023-05-19T05:16:44.380Z,100953.28
2023-05-19T05:17:16.134Z,100950.63
2023-05-19T05:17:47.797Z,100957.75
2023-05-19T05:18:19.465Z,100951.69
2023-05-19T05:18:51.089Z,100958.72
2023-05-19T05:19:23.066Z,100953.41
2023-05-19T05:19:54.795Z,100962.22
2023-05-19T05:20:26.553Z,100960.41
2023-05-19T05:20:58.112Z,100962.13
2023-05-19T05:21:30.059Z,100955.09
2023-05-19T05:22:01.790Z,100964.06
2023-05-19T05:22:33.574Z,100957.75
2023-05-19T05:23:05.187Z,100959.56
2023-05-19T05:23:36.848Z,100965.75
2023-05-19T05:24:08.884Z,100968.50
2023-05-19T05:24:40.508Z,100961.50
2023-05-19T05:25:12.584Z,100961.38
2023-05-19T05:25:44.280Z,100966.72
2023-05-19T05:26:18.703Z,100965.75
2023-05-19T05:26:50.386Z,100971.06
2023-05-19T05:27:21.869Z,100967.44
2023-05-19T05:27:53.392Z,100955.09
2023-05-19T05:28:24.910Z,100970.13
2023-05-19T05:28:56.427Z,100964.78
2023-05-19T05:29:27.912Z,100962.13
2023-05-19T05:29:59.511Z,100968.28
2023-05-19T05:30:31.093Z,100970.13
2023-05-19T05:31:02.603Z,100969.13
2023-05-19T05:31:34.133Z,100964.78
2023-05-19T05:32:05.793Z,100968.28
2023-05-19T05:32:37.532Z,100966.59
2023-05-19T05:33:09.326Z,100957.75
2023-05-19T05:33:41.081Z,100963.06
2023-05-19T05:34:12.644Z,100956.06
2023-05-19T05:34:44.149Z,100965.75
2023-05-19T05:35:15.659Z,100959.56
2023-05-19T05:35:47.182Z,100951.59
2023-05-19T05:36:18.695Z,100960.41
2023-05-19T05:36:50.240Z,100953.28
2023-05-19T05:37:21.741Z,100955.09
2023-05-19T05:37:53.246Z,100955.09
2023-05-19T05:38:24.833Z,100955.97
2023-05-19T05:38:56.334Z,100958.63
2023-05-19T05:39:27.804Z,100963.06
2023-05-19T05:39:59.407Z,100957.75
2023-05-19T05:40:30.974Z,100965.75
2023-05-19T05:41:02.593Z,100962.22
2023-05-19T05:41:34.110Z,100961.28
2023-05-19T05:42:05.732Z,100956.06
2023-05-19T05:42:37.296Z,100962.22
2023-05-19T05:43:08.825Z,100964.91
2023-05-19T05:43:40.372Z,100959.56
2023-05-19T05:44:11.935Z,100965.75
2023-05-19T05:44:43.439Z,100964.06
2023-05-19T05:45:14.905Z,100962.22
2023-05-19T05:45:46.435Z,100963.19
2023-05-19T05:46:18.001Z,100964.91
2023-05-19T05:46:49.729Z,100961.28
2023-05-19T05:47:21.438Z,100963.94
2023-05-19T05:47:53.129Z,100963.06
2023-05-19T05:48:24.908Z,100957.75
2023-05-19T05:48:56.519Z,100961.38
2023-05-19T05:49:28.235Z,100952.53
2023-05-19T05:49:59.914Z,100955.09
2023-05-19T05:50:31.673Z,100950.75
2023-05-19T05:51:03.389Z,100963.94
2023-05-19T05:51:34.999Z,100957.75
2023-05-19T05:52:07.055Z,100956.81
2023-05-19T05:52:38.635Z,100950.63
2023-05-19T05:53:10.182Z,100955.97
2023-05-19T05:53:41.876Z,100955.97
2023-05-19T05:54:13.686Z,100949.75
2023-05-19T05:54:45.283Z,100948.06
2023-05-19T05:55:16.933Z,100949.88
2023-05-19T05:55:48.537Z,100955.09
2023-05-19T05:56:20.284Z,100954.25
2023-05-19T05:56:51.974Z,100951.69
2023-05-19T05:57:23.511Z,100966.72
2023-05-19T05:57:55.088Z,100954.25
2023-05-19T05:58:27.798Z,100953.41
2023-05-19T05:58:59.632Z,100958.72
2023-05-19T05:59:31.183Z,100951.69
2023-05-19T06:00:02.824Z,100957.84
2023-05-19T06:00:34.786Z,100956.06
2023-05-19T06:01:06.867Z,100961.38
2023-05-19T06:01:38.378Z,100955.19
2023-05-19T06:02:09.936Z,100958.72
2023-05-19T06:02:47.201Z,100952.53
2023-05-19T06:03:18.978Z,100950.84
2023-05-19T06:03:50.810Z,100953.41
2023-05-19T06:04:22.334Z,100950.75
2023-05-19T06:04:53.923Z,100951.69
2023-05-19T06:05:25.536Z,100953.41
2023-05-19T06:05:57.212Z,100953.41
2023-05-19T06:06:28.824Z,100954.25
2023-05-19T06:07:00.358Z,100962.22
2023-05-19T06:07:32.075Z,100960.41
2023-05-19T06:08:03.858Z,100953.41
2023-05-19T06:08:35.442Z,100953.41